createdAt,value
2019-02-23T01:44:31.320Z,8.70
2019-02-23T01:49:37.054Z,8.50
2019-02-23T01:54:44.216Z,8.80
2019-02-23T01:59:49.324Z,8.40
2019-02-23T02:04:54.294Z,8.40
2019-02-23T02:15:04.233Z,8.50
2019-02-23T02:25:18.973Z,8.80
2019-02-23T02:30:23.887Z,9.10
2019-02-23T02:35:29.132Z,9.10
2019-02-23T02:40:35.313Z,9.10
2019-02-23T02:45:40.428Z,8.80
2019-02-23T02:50:45.387Z,8.80
2019-02-23T02:55:50.379Z,9.00
2019-02-23T03:00:56.026Z,9.00
2019-02-23T03:06:02.563Z,9.00
2019-02-23T03:11:09.382Z,9.40
2019-02-23T03:16:16.919Z,8.70
2019-02-23T03:21:21.989Z,8.60
2019-02-23T03:26:27.270Z,11.20
2019-02-23T03:31:33.932Z,8.60
2019-02-23T03:36:39.927Z,9.00
2019-02-23T03:41:45.490Z,9.30
2019-02-23T03:46:52.899Z,9.20
2019-02-23T03:51:59.842Z,8.90
2019-02-23T03:57:06.165Z,9.10
2019-02-23T04:02:11.650Z,9.10
2019-02-23T04:07:16.846Z,9.30
2019-02-23T04:12:22.392Z,9.30
2019-02-23T04:17:27.988Z,9.30
2019-02-23T04:22:33.270Z,9.30
2019-02-23T04:27:38.139Z,9.10
2019-02-23T04:32:43.258Z,8.50
2019-02-23T04:42:53.133Z,8.00
2019-02-23T04:47:58.030Z,6.80
2019-02-23T04:53:02.940Z,6.40
2019-02-23T04:58:07.824Z,6.30
2019-02-23T05:03:13.895Z,6.20
2019-02-23T05:08:18.893Z,6.40
2019-02-23T05:23:32.124Z,6.70
2019-02-23T05:28:38.514Z,6.60
2019-02-23T05:33:43.558Z,6.90
2019-02-23T05:38:48.616Z,6.50
2019-02-23T05:54:11.458Z,6.10
2019-02-23T05:59:16.451Z,6.20
2019-02-23T06:09:25.445Z,5.80
2019-02-23T06:29:46.736Z,5.10
2019-02-23T06:34:52.242Z,5.10
2019-02-23T06:50:09.121Z,5.30
2019-02-23T07:00:22.212Z,5.70
2019-02-23T07:10:39.755Z,5.80
2019-02-23T07:15:44.885Z,6.00
2019-02-23T07:21:00.425Z,6.20
2019-02-23T07:26:07.048Z,6.50
2019-02-23T07:31:12.202Z,6.70
2019-02-23T07:36:17.250Z,6.50
2019-02-23T07:41:22.405Z,4.60
2019-02-23T07:46:30.141Z,6.80
2019-02-23T07:51:36.231Z,6.90
2019-02-23T07:56:48.343Z,6.80
2019-02-23T08:01:53.349Z,6.80
2019-02-23T08:06:58.381Z,7.10
2019-02-23T08:17:09.269Z,8.20
2019-02-23T08:22:14.374Z,8.30
2019-02-23T08:27:20.717Z,8.20
2019-02-23T08:32:25.914Z,8.60
2019-02-23T08:37:31.433Z,8.80
2019-02-23T08:42:49.135Z,11.90
2019-02-23T08:58:02.581Z,10.80
2019-02-23T09:08:13.117Z,11.70
2019-02-23T09:13:18.111Z,11.10
2019-02-23T09:23:28.462Z,12.70
2019-02-23T09:28:33.279Z,13.10
2019-02-23T09:33:38.308Z,12.00
2019-02-23T09:43:47.281Z,13.10
2019-02-23T09:48:52.080Z,16.10
2019-02-23T09:53:56.976Z,13.80
2019-02-23T09:59:05.470Z,13.80
2019-02-23T10:04:10.446Z,14.10
2019-02-23T10:09:15.640Z,14.40
2019-02-23T10:14:20.580Z,17.80
2019-02-23T10:19:25.465Z,18.50
2019-02-23T10:24:31.804Z,18.60
2019-02-23T10:29:37.481Z,18.40
2019-02-23T10:34:42.410Z,16.20
2019-02-23T10:39:47.276Z,17.30
2019-02-23T10:44:52.128Z,15.50
2019-02-23T10:49:57.352Z,18.00
2019-02-23T10:55:02.752Z,19.30
2019-02-23T11:00:14.905Z,20.30
2019-02-23T11:05:20.857Z,21.20
2019-02-23T11:10:26.767Z,20.10
2019-02-23T11:15:31.789Z,19.40
2019-02-23T11:20:37.014Z,19.50
2019-02-23T11:25:50.807Z,20.10
2019-02-23T11:30:56.914Z,18.90
2019-02-23T11:36:01.962Z,19.40
2019-02-23T11:41:07.055Z,18.00
2019-02-23T11:46:12.823Z,15.90
2019-02-23T11:51:19.081Z,13.00
2019-02-23T11:56:27.582Z,16.90
2019-02-23T12:01:32.792Z,16.60
2019-02-23T12:06:38.007Z,17.70
2019-02-23T12:11:43.773Z,16.70
2019-02-23T12:16:49.579Z,16.60
2019-02-23T12:21:56.224Z,16.50
2019-02-23T12:27:02.184Z,17.80
2019-02-23T12:32:08.199Z,18.60
2019-02-23T12:37:13.485Z,19.70
2019-02-23T12:42:19.070Z,19.60
2019-02-23T12:47:23.872Z,18.80
2019-02-23T12:52:31.201Z,17.30
2019-02-23T12:57:36.073Z,19.50
2019-02-23T13:02:41.386Z,20.50
2019-02-23T13:07:47.393Z,21.50
2019-02-23T13:12:59.767Z,21.80
2019-02-23T13:18:33.955Z,20.10
2019-02-23T13:24:37.972Z,17.40
2019-02-23T13:30:24.271Z,19.10
2019-02-23T13:36:19.537Z,18.90
2019-02-23T13:41:53.139Z,17.20
2019-02-23T13:47:39.888Z,17.20
2019-02-23T13:53:25.580Z,17.50
2019-02-23T13:59:18.668Z,19.00
2019-02-23T14:04:55.534Z,18.30
2019-02-23T14:10:36.174Z,18.30
2019-02-23T14:16:06.210Z,20.00
2019-02-23T14:21:37.932Z,19.60
2019-02-23T14:27:13.843Z,19.80
2019-02-23T14:33:06.300Z,17.30
2019-02-23T14:38:49.066Z,17.70
2019-02-23T14:44:18.538Z,18.90
2019-02-23T14:49:58.918Z,18.10
2019-02-23T14:55:56.883Z,17.60
2019-02-23T15:01:43.385Z,16.70
2019-02-23T15:07:25.021Z,15.80
2019-02-23T15:12:37.479Z,16.50
2019-02-23T15:18:03.822Z,17.40
2019-02-23T15:23:33.240Z,16.90
2019-02-23T15:29:06.914Z,16.30
2019-02-23T15:34:50.653Z,16.90
2019-02-23T15:40:37.275Z,17.40
2019-02-23T15:46:15.251Z,18.00
2019-02-23T15:51:21.380Z,15.00
2019-02-23T15:56:26.369Z,14.40
2019-02-23T16:01:31.320Z,14.10
2019-02-23T16:06:36.432Z,14.30
2019-02-23T16:11:41.632Z,13.40
2019-02-23T16:16:47.551Z,13.50
2019-02-23T16:21:53.647Z,13.10
2019-02-23T16:26:58.650Z,17.90
2019-02-23T16:32:03.718Z,12.90
2019-02-23T16:37:08.715Z,12.70
2019-02-23T16:42:14.938Z,12.60
2019-02-23T16:47:20.113Z,12.40
2019-02-23T17:02:45.719Z,11.90
2019-02-23T17:07:53.757Z,11.80
2019-02-23T17:12:58.947Z,11.60
2019-02-23T17:28:13.784Z,11.30
2019-02-23T17:38:26.509Z,11.10
2019-02-23T17:43:31.628Z,11.00
2019-02-23T17:53:40.738Z,10.80
2019-02-23T18:08:54.998Z,10.90
2019-02-23T18:14:00.147Z,10.60
2019-02-23T18:29:14.492Z,10.40
2019-02-23T18:34:19.286Z,10.50
2019-02-23T18:44:33.204Z,10.40
2019-02-23T18:49:38.098Z,10.40
2019-02-23T18:54:43.003Z,10.30
2019-02-23T18:59:50.954Z,10.20
2019-02-23T19:04:56.580Z,10.00
2019-02-23T19:10:01.840Z,9.90
2019-02-23T19:15:07.798Z,9.90
2019-02-23T19:45:35.603Z,9.10
2019-02-23T20:00:59.554Z,8.80
2019-02-23T20:21:18.873Z,8.60
2019-02-23T20:31:32.220Z,8.20
2019-02-23T20:41:41.216Z,8.20
2019-02-23T20:51:50.133Z,8.00
2019-02-23T21:22:23.316Z,7.50
2019-02-23T21:52:49.502Z,7.00
2019-02-23T21:57:54.357Z,7.00
2019-02-23T22:02:59.303Z,7.00
2019-02-23T22:08:04.611Z,7.00
2019-02-23T22:13:09.681Z,6.90
2019-02-23T22:18:14.916Z,6.90
2019-02-23T22:33:29.779Z,6.90
2019-02-23T22:38:34.640Z,6.90
2019-02-23T22:43:40.119Z,6.70
2019-02-23T22:48:44.956Z,6.90
2019-02-23T22:53:49.864Z,6.80
2019-02-23T22:58:54.838Z,6.80
2019-02-23T23:03:59.629Z,6.80
2019-02-23T23:19:15.993Z,6.60
2019-02-23T23:24:23.289Z,6.50
2019-02-23T23:34:36.135Z,6.60
2019-02-23T23:39:43.038Z,6.60
2019-02-23T23:44:50.025Z,6.60
2019-02-23T23:54:59.139Z,6.90
